Etusivu
METAR-TAF:

METAR-TAF

Lentoasemat :

Sault Ste. Marie, Ontario, Kanada

Leveyspiiri: 46-29N, Pituuspiiri: 084-30W, korkeus merenpinnasta: 187 m

Tämänhetkinen sää

Tämä raportti tehtiin 33 minuuttia sitten, kello 10.00 UTC
Tuuli 2 kn luoteesta
Lämpötila 5°C
Kosteus 93%
Ilmanpaine 1014 hPa
Näkyvyys: 24.1 km
Hajanaisia pilviä 15000 ft:n korkeudessa
Hajanaisia pilviä 20000 ft:n korkeudessa
Hajonneita pilviä 23000 ft:n korkeudessa

METAR: CYAM 161000Z 31002KT 15SM SCT150 SCT200 BKN230 05/04 A2994 RMK AC3CC1CI2 SLP144

Aika: 06:33 (10:33 UTC)

Sääennuste

Tämä raportti tehtiin 2 tuntia ja 55 minuuttia sitten, kello 07.38 UTC
Ennuste voimassa 16. päivästä klo 08 UTC - 16. päivään klo 20 UTC
Tuuli 3 kn eri suunnista
Näkyvyys: 10 km
Muutamia pilviä 3000 ft:n korkeudessa
Todennäköisyys 30%
16. päivästä klo 08 UTC - 16. päivään klo 12 UTC
Näkyvyys: 1.6 km
utua

TAF: CYAM 160738Z 1608/1620 VRB03KT P6SM FEW030 PROB30 1608/1612 1SM BR RMK NXT FCST BY 161400Z

Säähavainnot ja -ennusteet yli 4000 lentoasemalta (METAR- ja TAF-raportit).

Käytössä olevat sääasemat on merkitty karttaan keltaisilla ja punaisilla pisteillä.

Aseta hiiri pisteen päälle nähdäksesi sääaseman nimen.

Klikkaa sitten nähdäksesi säähavainnot ja -ennusteet.

Kartan vaihtaminen: klikkaa mustalla rastilla varustettuja vihreitä pisteitä, niin voit zoomata sisään; viivalla varustettua vihreää pistettä, niin voit zoomata ulos tai vihreitä nuolia, niin pääset viereisille kartoille.


METAR-TAF: